East Dennis, MA (02641)

7:09 PM EDT on March 22, 2017 (GMT -0400)
East Dennis | | Change Station
Active Advisory: Wind Advisory Active Notice: Public Information Statement

Elev 19 ft 41.74 °N, 70.16 °W | Updated 7 seconds ago

Clear
Clear
27.7 °F
Feels Like 28 °F
N
0.0
Wind Variable Wind from North
Gusts 0.6 mph

Today
High -- | Low -- °F
--% Chance of Precip.
Yesterday
High -- | Low -- °F
Precip. -- in
Pressure 30.06 in
Visibility 10.0 miles
Clouds Clear
Windchill 28 °F
Dew Point 6 °F
Humidity 40%
Rainfall 0.00 in
Snow Depth Not available.
6:40 AM 6:55 PM
Waning Crescent, 28% visible
METAR KHYA 222256Z 31013G25KT 10SM CLR M03/M19 A3005 RMK AO2 PK WND 33034/2221 SLP179 T10281189
Pressure 30.06 in
Visibility 10.0 miles
Clouds Clear
Windchill 28 °F
Dew Point 6 °F
Humidity 40%
Rainfall 0.00 in
Snow Depth Not available.
6:40 AM 6:55 PM
Waning Crescent, 28% visible
METAR KHYA 222256Z 31013G25KT 10SM CLR M03/M19 A3005 RMK AO2 PK WND 33034/2221 SLP179 T10281189

Get Your Daily Forecast Email!

Thanks for signing up!

Be on the lookout for a verification email in your inbox.

You'll start receiving severe weather alerts in your inbox..

×

10-Day Weather Forecast

Almanac

Astronomy

Mar. 22, 2017 Rise Set
Actual Time
Civil Twilight
Nautical Twilight
Astronomical Twilight
Moon
Length of Visible Light
Length of Day
Tomorrow will be .
, % of the Moon is Illuminated

Today's Extremes

State Highs State Lows

Community

WunderPhotos

Upload Photos

1,962,540 photos uploaded!

WunderBlog® & News

Nearby

Air Quality

  Air Quality AQ Index Pollutant
Not available.

Snow Depth

Station Depth Elevation

Earthquake Activity

City Distance Mag. Time & Date
Minimum magnitude displayed is 2.5.

Earthquake Activity

City Distance Mag. Time & Date
Minimum magnitude displayed is 2.5.

Coastal Water Temperatures

Place Temperature

Stations

Nearby Weather Stations

Station Location Temp. Windchill Dew Point Humidity Wind Precip. Elev Updated Type
                   

Watches & Warnings

Wind Advisory
Issued: 5:59 PM EDT Mar. 22, 2017 – National Weather Service

... Wind Advisory remains in effect until 8 PM EDT this evening...

* location... central and eastern Massachusetts as well as Rhode
Island.

* Winds... northwest 25 to 30 mph with gusts up to 50 mph.

* Timing... strongest winds will occur through this evening.

* Impacts... a few downed trees, tree limbs and isolated power
outages are possible.

Precautionary/preparedness actions...

A Wind Advisory means that sustained winds of 31 to 39 mph are
expected, with gusts between 46 to 57 mph. Winds this strong are
capable of Downing small tree limbs and branches, possibly
causing isolated power outages. Driving can also be difficult,
especially for high profile vehicles. Use extra caution.



For the latest updates... please visit our webpage at
www.Weather.Gov/Boston

You can follow US on facebook at
www.Facebook.Com/nwsboston